Time;durP1;ratioP1;P1;durP2;ratioP2;P2;SDS_P1;SDS_P2;PMS_P1;PMS_P2;Temp;Humidity;BMP_temperature;BMP_pressure;BME280_temperature;BME280_humidity;BME280_pressure;Samples;Min_cycle;Max_cycle;Signal;HPM_P1;HPM_P2
2022/12/20 00:00:17;;;;;;;4.00;1.95;;;;;;;;;;5083227;28;20052;-87
2022/12/20 00:02:46;;;;;;;1.13;0.90;;;;;;;;;;5086341;28;20070;-87
2022/12/20 00:05:16;;;;;;;1.20;1.10;;;;;;;;;;5081735;28;20051;-87
2022/12/20 00:07:45;;;;;;;0.38;0.38;;;;;;;;;;5093839;28;20047;-88
2022/12/20 00:10:13;;;;;;;0.57;0.57;;;;;;;;;;5068082;28;20054;-87
2022/12/20 00:12:42;;;;;;;0.50;0.50;;;;;;;;;;5077817;28;20055;-87
2022/12/20 00:15:13;;;;;;;1.25;0.60;;;;;;;;;;5067471;28;20606;-88
2022/12/20 00:17:41;;;;;;;0.95;0.93;;;;;;;;;;5076293;28;20084;-88
2022/12/20 00:20:10;;;;;;;1.38;1.33;;;;;;;;;;5069001;28;20075;-88
2022/12/20 00:22:43;;;;;;;1.70;1.42;;;;;;;;;;5090652;28;20131;-88
2022/12/20 00:25:12;;;;;;;0.60;0.60;;;;;;;;;;5081082;28;20068;-87
2022/12/20 00:27:42;;;;;;;0.88;0.88;;;;;;;;;;5076608;28;20044;-87
2022/12/20 00:30:11;;;;;;;0.73;0.73;;;;;;;;;;5074070;28;20134;-87
2022/12/20 00:32:40;;;;;;;2.15;1.42;;;;;;;;;;5074431;28;20059;-87
2022/12/20 00:35:08;;;;;;;2.38;0.57;;;;;;;;;;5070292;28;20052;-87
2022/12/20 00:37:37;;;;;;;1.08;1.05;;;;;;;;;;5093726;28;20107;-88
2022/12/20 00:40:10;;;;;;;0.90;0.90;;;;;;;;;;5079832;28;20052;-88
2022/12/20 00:42:39;;;;;;;1.13;0.80;;;;;;;;;;5060394;28;20049;-88
2022/12/20 00:45:08;;;;;;;0.70;0.70;;;;;;;;;;5072675;28;20134;-88
2022/12/20 00:47:36;;;;;;;1.02;0.95;;;;;;;;;;5073475;28;20078;-88
2022/12/20 00:50:05;;;;;;;2.53;1.05;;;;;;;;;;5077334;28;20040;-86
2022/12/20 00:52:36;;;;;;;1.45;1.05;;;;;;;;;;5087843;28;20062;-86
2022/12/20 00:55:07;;;;;;;0.60;0.60;;;;;;;;;;5070284;28;20076;-87
2022/12/20 00:57:35;;;;;;;7.15;1.67;;;;;;;;;;5084733;28;20060;-87
2022/12/20 01:00:06;;;;;;;0.32;0.32;;;;;;;;;;5062866;28;20401;-87
2022/12/20 01:02:34;;;;;;;1.15;1.15;;;;;;;;;;5070959;28;21252;-88
2022/12/20 01:05:03;;;;;;;1.55;1.00;;;;;;;;;;5062253;28;20041;-88
2022/12/20 01:07:31;;;;;;;0.40;0.40;;;;;;;;;;5056439;28;20048;-87
2022/12/20 01:10:08;;;;;;;0.90;0.85;;;;;;;;;;5063138;28;20071;-87
2022/12/20 01:12:37;;;;;;;0.30;0.30;;;;;;;;;;5075560;28;20321;-88
2022/12/20 01:15:06;;;;;;;1.15;1.05;;;;;;;;;;5069489;28;20056;-87
2022/12/20 01:17:37;;;;;;;0.45;0.45;;;;;;;;;;5072705;28;20561;-88
2022/12/20 01:20:07;;;;;;;1.90;1.42;;;;;;;;;;5073308;28;20055;-88
2022/12/20 01:22:35;;;;;;;0.43;0.43;;;;;;;;;;5083060;28;20054;-88
2022/12/20 01:25:15;;;;;;;1.20;1.13;;;;;;;;;;5081142;28;20155;-88
2022/12/20 01:27:44;;;;;;;1.55;1.42;;;;;;;;;;5071267;28;20111;-88
2022/12/20 01:30:13;;;;;;;1.25;0.68;;;;;;;;;;5070962;28;20063;-88
2022/12/20 01:32:41;;;;;;;0.70;0.70;;;;;;;;;;5080978;28;20226;-87
2022/12/20 01:35:10;;;;;;;0.55;0.40;;;;;;;;;;5057465;28;20045;-88
2022/12/20 01:37:40;;;;;;;1.58;0.88;;;;;;;;;;5085303;28;20408;-88
2022/12/20 01:40:10;;;;;;;0.98;0.75;;;;;;;;;;5076958;28;20235;-88
2022/12/20 01:42:40;;;;;;;0.52;0.52;;;;;;;;;;5082637;28;20052;-89
2022/12/20 01:45:12;;;;;;;0.50;0.50;;;;;;;;;;5073968;28;20095;-88
2022/12/20 01:47:40;;;;;;;0.85;0.65;;;;;;;;;;5076101;28;20571;-89
2022/12/20 01:50:09;;;;;;;1.95;1.10;;;;;;;;;;5067742;28;20140;-89
2022/12/20 01:52:44;;;;;;;0.38;0.38;;;;;;;;;;5060862;28;20086;-88
2022/12/20 01:55:14;;;;;;;1.02;1.02;;;;;;;;;;5070764;28;20049;-88
2022/12/20 01:57:47;;;;;;;1.67;0.68;;;;;;;;;;5077354;28;20073;-88
2022/12/20 02:00:16;;;;;;;0.90;0.90;;;;;;;;;;5068395;28;20044;-88
2022/12/20 02:02:45;;;;;;;0.28;0.25;;;;;;;;;;5078670;28;20177;-89
2022/12/20 02:05:15;;;;;;;1.25;1.15;;;;;;;;;;5076849;28;20059;-88
2022/12/20 02:07:44;;;;;;;1.38;0.82;;;;;;;;;;5083518;28;20070;-88
2022/12/20 02:10:13;;;;;;;0.60;0.55;;;;;;;;;;5077581;28;20073;-88
2022/12/20 02:12:42;;;;;;;0.63;0.60;;;;;;;;;;5060527;28;20381;-89
2022/12/20 02:15:22;;;;;;;1.95;1.27;;;;;;;;;;5069567;28;20585;-89
2022/12/20 02:17:54;;;;;;;0.45;0.43;;;;;;;;;;5058985;28;20045;-88
2022/12/20 02:20:47;;;;;;;2.35;0.77;;;;;;;;;;5077321;28;20588;-88
2022/12/20 02:23:44;;;;;;;2.55;1.17;;;;;;;;;;5082496;28;20052;-88
2022/12/20 02:26:24;;;;;;;1.95;0.65;;;;;;;;;;5070966;28;20053;-88
2022/12/20 02:29:00;;;;;;;0.70;0.60;;;;;;;;;;5075165;28;20067;-87
2022/12/20 02:31:34;;;;;;;0.73;0.73;;;;;;;;;;5062030;28;20116;-88
2022/12/20 02:34:03;;;;;;;3.95;0.88;;;;;;;;;;5073401;28;20052;-88
2022/12/20 02:36:32;;;;;;;0.90;0.73;;;;;;;;;;5063769;28;20067;-88
2022/12/20 02:39:00;;;;;;;0.47;0.47;;;;;;;;;;5087045;28;20071;-88
2022/12/20 02:41:31;;;;;;;0.50;0.50;;;;;;;;;;5070064;28;20132;-88
2022/12/20 02:46:55;;;;;;;0.70;0.70;;;;;;;;;;5065991;28;20420;-88
2022/12/20 02:49:26;;;;;;;1.60;0.60;;;;;;;;;;5065803;28;20040;-88
2022/12/20 02:51:55;;;;;;;0.50;0.40;;;;;;;;;;5067294;28;20080;-87
2022/12/20 02:54:24;;;;;;;0.35;0.35;;;;;;;;;;5069366;28;20052;-87
2022/12/20 02:56:55;;;;;;;0.47;0.47;;;;;;;;;;5063753;28;20739;-88
2022/12/20 02:59:25;;;;;;;0.43;0.38;;;;;;;;;;5069859;28;20112;-89
2022/12/20 03:01:55;;;;;;;0.65;0.65;;;;;;;;;;5077280;28;20381;-89
2022/12/20 03:04:25;;;;;;;0.75;0.75;;;;;;;;;;5071072;28;20102;-88
2022/12/20 03:06:58;;;;;;;0.30;0.30;;;;;;;;;;5070458;28;20045;-88
2022/12/20 03:09:26;;;;;;;0.55;0.55;;;;;;;;;;5068883;28;20484;-88
2022/12/20 03:11:57;;;;;;;1.25;1.25;;;;;;;;;;5085938;28;20056;-89
2022/12/20 03:14:26;;;;;;;0.20;0.20;;;;;;;;;;5072860;28;20502;-88
2022/12/20 03:16:56;;;;;;;0.98;0.70;;;;;;;;;;5072917;28;20481;-88
2022/12/20 03:19:25;;;;;;;0.80;0.80;;;;;;;;;;5072310;28;20090;-88
2022/12/20 03:21:53;;;;;;;0.63;0.63;;;;;;;;;;5081791;28;20143;-89
2022/12/20 03:24:22;;;;;;;3.47;1.80;;;;;;;;;;5058170;28;20045;-89
2022/12/20 03:26:50;;;;;;;0.50;0.50;;;;;;;;;;5065491;28;20048;-89
2022/12/20 03:29:18;;;;;;;1.15;1.05;;;;;;;;;;5077291;28;20040;-89
2022/12/20 03:31:47;;;;;;;1.63;1.17;;;;;;;;;;5075635;28;20040;-88
2022/12/20 03:34:17;;;;;;;0.57;0.57;;;;;;;;;;5071736;28;20127;-88
2022/12/20 03:36:45;;;;;;;0.30;0.30;;;;;;;;;;5077061;28;20045;-88
2022/12/20 03:39:13;;;;;;;0.98;0.85;;;;;;;;;;5072867;28;20060;-88
2022/12/20 03:41:45;;;;;;;0.73;0.73;;;;;;;;;;5071934;28;20040;-88
2022/12/20 03:44:13;;;;;;;1.10;0.95;;;;;;;;;;5075770;28;20131;-89
2022/12/20 03:46:42;;;;;;;0.70;0.70;;;;;;;;;;5069112;28;20075;-88
2022/12/20 03:49:10;;;;;;;1.40;1.10;;;;;;;;;;5066136;28;21279;-88
2022/12/20 03:51:43;;;;;;;0.98;0.80;;;;;;;;;;5065644;28;20149;-88
2022/12/20 03:54:11;;;;;;;1.48;1.42;;;;;;;;;;5072469;28;20062;-88
2022/12/20 03:56:42;;;;;;;0.70;0.70;;;;;;;;;;5075024;28;20048;-88
2022/12/20 03:59:12;;;;;;;0.73;0.50;;;;;;;;;;5074535;28;20052;-88
2022/12/20 04:01:43;;;;;;;0.82;0.80;;;;;;;;;;5068735;28;20059;-89
2022/12/20 04:04:13;;;;;;;0.60;0.60;;;;;;;;;;5071447;28;20067;-89
2022/12/20 04:06:43;;;;;;;0.22;0.22;;;;;;;;;;5069414;28;20455;-88
2022/12/20 04:09:11;;;;;;;0.40;0.40;;;;;;;;;;5071506;28;20405;-89
2022/12/20 04:11:40;;;;;;;0.43;0.43;;;;;;;;;;5073607;28;20053;-89
2022/12/20 04:14:08;;;;;;;1.95;0.55;;;;;;;;;;5070999;28;20565;-88
2022/12/20 04:16:39;;;;;;;0.40;0.40;;;;;;;;;;5070593;28;20048;-87
2022/12/20 04:19:07;;;;;;;2.10;1.20;;;;;;;;;;5065105;28;20160;-89
2022/12/20 04:21:36;;;;;;;0.45;0.30;;;;;;;;;;5070830;28;20045;-88
2022/12/20 04:24:06;;;;;;;0.85;0.85;;;;;;;;;;5080969;28;20036;-88
2022/12/20 04:26:35;;;;;;;0.50;0.50;;;;;;;;;;5079578;28;20052;-88
2022/12/20 04:29:04;;;;;;;0.50;0.50;;;;;;;;;;5063483;28;20322;-88
2022/12/20 04:31:32;;;;;;;0.20;0.20;;;;;;;;;;5069688;28;20109;-88
2022/12/20 04:34:01;;;;;;;1.42;1.25;;;;;;;;;;5059991;28;20037;-88
2022/12/20 04:36:32;;;;;;;0.82;0.82;;;;;;;;;;5074033;28;20105;-88
2022/12/20 04:39:01;;;;;;;1.58;1.13;;;;;;;;;;5079068;28;20066;-88
2022/12/20 04:41:31;;;;;;;0.90;0.50;;;;;;;;;;5059708;28;20047;-88
2022/12/20 04:43:59;;;;;;;0.57;0.57;;;;;;;;;;5061919;28;20504;-88
2022/12/20 04:46:28;;;;;;;0.40;0.40;;;;;;;;;;5050607;28;20164;-88
2022/12/20 04:48:56;;;;;;;0.52;0.50;;;;;;;;;;5081302;28;20484;-88
2022/12/20 04:51:27;;;;;;;0.25;0.25;;;;;;;;;;5069703;28;20053;-89
2022/12/20 04:53:55;;;;;;;0.35;0.35;;;;;;;;;;5071996;28;20094;-88
2022/12/20 04:56:24;;;;;;;5.80;1.85;;;;;;;;;;5075384;28;20056;-88
2022/12/20 04:58:58;;;;;;;0.20;0.20;;;;;;;;;;5081259;28;20052;-88
2022/12/20 05:01:26;;;;;;;0.50;0.47;;;;;;;;;;5069687;28;20124;-88
2022/12/20 05:03:58;;;;;;;2.17;0.88;;;;;;;;;;5071631;28;20049;-89
2022/12/20 05:06:27;;;;;;;1.65;0.55;;;;;;;;;;5068523;28;20040;-89
2022/12/20 05:08:55;;;;;;;0.35;0.35;;;;;;;;;;5068049;28;20051;-88
2022/12/20 05:11:24;;;;;;;1.65;0.80;;;;;;;;;;5085598;28;20444;-88
2022/12/20 05:13:57;;;;;;;0.63;0.63;;;;;;;;;;5072874;28;20445;-88
2022/12/20 05:16:25;;;;;;;0.55;0.55;;;;;;;;;;5072833;28;20044;-89
2022/12/20 05:18:54;;;;;;;0.20;0.20;;;;;;;;;;5071406;28;20090;-89
2022/12/20 05:26:59;;;;;;;1.17;0.77;;;;;;;;;;5051844;28;20040;-89
2022/12/20 05:29:29;;;;;;;0.43;0.43;;;;;;;;;;5074531;28;20062;-88
2022/12/20 05:31:58;;;;;;;1.13;0.55;;;;;;;;;;5063839;28;20148;-89
2022/12/20 05:34:29;;;;;;;0.30;0.30;;;;;;;;;;5070159;28;20040;-88
2022/12/20 05:36:58;;;;;;;0.35;0.35;;;;;;;;;;5078526;28;20052;-89
2022/12/20 05:39:26;;;;;;;0.50;0.50;;;;;;;;;;5071559;28;20127;-89
2022/12/20 05:41:55;;;;;;;0.50;0.50;;;;;;;;;;5069997;28;20040;-88
2022/12/20 05:44:24;;;;;;;0.15;0.15;;;;;;;;;;5065783;28;20044;-87
2022/12/20 05:46:54;;;;;;;1.23;0.50;;;;;;;;;;5068110;28;20054;-88
2022/12/20 05:49:25;;;;;;;0.20;0.20;;;;;;;;;;5062347;28;20504;-88
2022/12/20 05:51:55;;;;;;;0.40;0.40;;;;;;;;;;5061128;28;20571;-88
2022/12/20 05:54:25;;;;;;;0.20;0.20;;;;;;;;;;5066440;28;20067;-89
2022/12/20 05:56:56;;;;;;;1.52;0.85;;;;;;;;;;5073521;28;20044;-90
2022/12/20 05:59:27;;;;;;;0.88;0.60;;;;;;;;;;5067706;28;20131;-91
2022/12/20 06:01:58;;;;;;;0.45;0.45;;;;;;;;;;5067636;28;20045;-94
2022/12/20 06:04:27;;;;;;;0.30;0.30;;;;;;;;;;5073088;28;20048;-92
2022/12/20 06:06:59;;;;;;;0.20;0.20;;;;;;;;;;5070851;28;20110;-93
2022/12/20 06:09:29;;;;;;;1.08;0.63;;;;;;;;;;5063888;28;20040;-92
2022/12/20 06:12:01;;;;;;;0.60;0.60;;;;;;;;;;5063673;28;20040;-91
2022/12/20 06:14:37;;;;;;;0.57;0.57;;;;;;;;;;5070117;28;20448;-93
2022/12/20 06:17:08;;;;;;;0.73;0.57;;;;;;;;;;5069217;28;20071;-94
2022/12/20 06:19:38;;;;;;;0.63;0.47;;;;;;;;;;5067465;28;20497;-90
2022/12/20 06:22:12;;;;;;;0.82;0.82;;;;;;;;;;5066933;28;20055;-89
2022/12/20 06:24:41;;;;;;;0.22;0.22;;;;;;;;;;5070918;28;20142;-89
2022/12/20 06:27:17;;;;;;;0.20;0.20;;;;;;;;;;5065038;28;20143;-91
2022/12/20 06:29:50;;;;;;;0.30;0.30;;;;;;;;;;5071889;28;20081;-89
2022/12/20 06:32:21;;;;;;;0.30;0.30;;;;;;;;;;5081464;28;20051;-90
2022/12/20 06:37:48;;;;;;;0.28;0.28;;;;;;;;;;5069264;28;20492;-93
2022/12/20 06:40:17;;;;;;;0.30;0.30;;;;;;;;;;5075759;28;20048;-93
2022/12/20 06:45:43;;;;;;;0.17;0.17;;;;;;;;;;5078436;28;20049;-96
2022/12/20 06:48:14;;;;;;;0.28;0.28;;;;;;;;;;5097009;28;20075;-96
2022/12/20 06:50:45;;;;;;;0.40;0.40;;;;;;;;;;5088816;28;20101;-95
2022/12/20 06:53:23;;;;;;;0.90;0.90;;;;;;;;;;5071508;28;20051;-95
2022/12/20 06:55:52;;;;;;;0.40;0.40;;;;;;;;;;5074029;28;20059;-94
2022/12/20 06:58:21;;;;;;;0.30;0.30;;;;;;;;;;5088160;28;20461;-95
2022/12/20 07:00:50;;;;;;;0.55;0.43;;;;;;;;;;5095482;28;20066;-96
2022/12/20 07:03:33;;;;;;;0.32;0.32;;;;;;;;;;5077490;22;20057;-86
2022/12/20 07:06:02;;;;;;;0.50;0.50;;;;;;;;;;5054343;28;20072;-86
2022/12/20 07:08:31;;;;;;;0.68;0.68;;;;;;;;;;5061908;28;20484;-87
2022/12/20 07:11:04;;;;;;;0.30;0.30;;;;;;;;;;5073229;28;20045;-87
2022/12/20 07:13:32;;;;;;;1.00;0.55;;;;;;;;;;5067412;28;20053;-87
2022/12/20 07:16:01;;;;;;;1.55;0.88;;;;;;;;;;5054468;28;20049;-86
2022/12/20 07:18:30;;;;;;;0.60;0.60;;;;;;;;;;5068229;28;20048;-85
2022/12/20 07:21:01;;;;;;;0.38;0.38;;;;;;;;;;5073602;28;20084;-87
2022/12/20 07:23:30;;;;;;;0.40;0.40;;;;;;;;;;5058409;28;20273;-88
2022/12/20 07:25:59;;;;;;;0.95;0.40;;;;;;;;;;5063097;28;20140;-88
2022/12/20 07:28:28;;;;;;;0.30;0.30;;;;;;;;;;5068409;28;20104;-87
2022/12/20 07:31:01;;;;;;;0.25;0.25;;;;;;;;;;5076564;28;20048;-87
2022/12/20 07:33:29;;;;;;;0.20;0.20;;;;;;;;;;5077574;28;20408;-89
2022/12/20 07:36:02;;;;;;;0.32;0.32;;;;;;;;;;5072927;28;20079;-87
2022/12/20 07:38:31;;;;;;;0.38;0.38;;;;;;;;;;5070075;28;20123;-88
2022/12/20 07:40:59;;;;;;;0.52;0.50;;;;;;;;;;5045069;28;20538;-87
2022/12/20 07:43:28;;;;;;;0.30;0.30;;;;;;;;;;5067949;28;20056;-87
2022/12/20 07:45:57;;;;;;;0.30;0.30;;;;;;;;;;5060077;28;20507;-87
2022/12/20 07:48:26;;;;;;;0.85;0.32;;;;;;;;;;5060527;28;21371;-85
2022/12/20 07:50:57;;;;;;;0.38;0.38;;;;;;;;;;5053406;28;20140;-85
2022/12/20 07:53:27;;;;;;;0.30;0.30;;;;;;;;;;5058140;28;20063;-85
2022/12/20 07:55:56;;;;;;;0.50;0.50;;;;;;;;;;5061572;28;20052;-86
2022/12/20 07:58:26;;;;;;;0.55;0.30;;;;;;;;;;5059528;28;20128;-86
2022/12/20 08:00:54;;;;;;;0.65;0.30;;;;;;;;;;5068451;28;20086;-85
2022/12/20 08:03:24;;;;;;;0.40;0.40;;;;;;;;;;5062847;28;20063;-86
2022/12/20 08:05:55;;;;;;;0.73;0.73;;;;;;;;;;5049073;28;20052;-86
2022/12/20 08:08:24;;;;;;;2.15;0.50;;;;;;;;;;5047672;28;20375;-85
2022/12/20 08:10:54;;;;;;;0.25;0.25;;;;;;;;;;5062723;28;20045;-85
2022/12/20 08:13:23;;;;;;;0.30;0.30;;;;;;;;;;5059898;28;20059;-85
2022/12/20 08:15:51;;;;;;;0.32;0.32;;;;;;;;;;5047698;28;20135;-85
2022/12/20 08:18:19;;;;;;;0.20;0.20;;;;;;;;;;5061570;28;20102;-86
2022/12/20 08:20:48;;;;;;;0.47;0.47;;;;;;;;;;5049856;28;20535;-85
2022/12/20 08:23:16;;;;;;;0.38;0.38;;;;;;;;;;5056733;28;20076;-85
2022/12/20 08:25:45;;;;;;;0.57;0.45;;;;;;;;;;5049373;28;20402;-86
2022/12/20 08:28:14;;;;;;;0.40;0.40;;;;;;;;;;5059877;28;20588;-85
2022/12/20 08:30:43;;;;;;;0.30;0.30;;;;;;;;;;5058204;28;20059;-86
2022/12/20 08:33:11;;;;;;;0.98;0.73;;;;;;;;;;5059440;28;20049;-85
2022/12/20 08:35:40;;;;;;;0.50;0.43;;;;;;;;;;5052034;28;20136;-84
2022/12/20 08:38:09;;;;;;;0.20;0.20;;;;;;;;;;5062218;28;20041;-85
2022/12/20 08:40:37;;;;;;;0.30;0.30;;;;;;;;;;5045646;28;20127;-86
2022/12/20 08:43:07;;;;;;;0.20;0.20;;;;;;;;;;5061409;28;20319;-84
2022/12/20 08:45:39;;;;;;;0.28;0.28;;;;;;;;;;5051844;28;20075;-85
2022/12/20 08:48:07;;;;;;;0.50;0.50;;;;;;;;;;5058107;28;20080;-85
2022/12/20 08:50:36;;;;;;;0.50;0.50;;;;;;;;;;5051399;28;20083;-88
2022/12/20 08:53:04;;;;;;;0.95;0.47;;;;;;;;;;5067051;28;20450;-84
2022/12/20 08:55:32;;;;;;;0.25;0.25;;;;;;;;;;5043952;28;20054;-85
2022/12/20 08:58:01;;;;;;;0.35;0.35;;;;;;;;;;5063139;28;20044;-85
2022/12/20 09:00:29;;;;;;;0.30;0.30;;;;;;;;;;5050292;28;20064;-84
2022/12/20 09:02:59;;;;;;;0.40;0.40;;;;;;;;;;5060004;28;20493;-85
2022/12/20 09:05:28;;;;;;;0.25;0.25;;;;;;;;;;5049499;28;20049;-85
2022/12/20 09:07:57;;;;;;;0.30;0.30;;;;;;;;;;5066998;28;20046;-86
2022/12/20 09:10:25;;;;;;;0.63;0.57;;;;;;;;;;5049991;28;20148;-85
2022/12/20 09:12:54;;;;;;;0.25;0.25;;;;;;;;;;5050891;28;20090;-85
2022/12/20 09:15:24;;;;;;;0.30;0.30;;;;;;;;;;5061295;28;20130;-85
2022/12/20 09:17:54;;;;;;;0.90;0.90;;;;;;;;;;5055634;28;20052;-85
2022/12/20 09:20:24;;;;;;;0.20;0.20;;;;;;;;;;5032288;28;20059;-85
2022/12/20 09:22:53;;;;;;;0.20;0.20;;;;;;;;;;5054537;28;20099;-84
2022/12/20 09:25:21;;;;;;;0.28;0.28;;;;;;;;;;5050820;28;20049;-85
2022/12/20 09:27:50;;;;;;;1.08;1.00;;;;;;;;;;5050178;28;20109;-86
2022/12/20 09:30:19;;;;;;;1.40;0.85;;;;;;;;;;5048364;28;20102;-87
2022/12/20 09:32:47;;;;;;;1.65;0.60;;;;;;;;;;5062539;28;20060;-85
2022/12/20 09:35:15;;;;;;;0.75;0.70;;;;;;;;;;5050414;28;20509;-86
2022/12/20 09:37:51;;;;;;;0.35;0.35;;;;;;;;;;5057228;28;20284;-86
2022/12/20 09:40:21;;;;;;;0.60;0.60;;;;;;;;;;5054047;28;20466;-85
2022/12/20 09:42:50;;;;;;;0.50;0.50;;;;;;;;;;5059408;28;20052;-86
2022/12/20 09:45:21;;;;;;;0.35;0.35;;;;;;;;;;5069203;28;20141;-85
2022/12/20 09:47:51;;;;;;;0.77;0.77;;;;;;;;;;5059220;28;20072;-87
2022/12/20 09:50:21;;;;;;;0.38;0.38;;;;;;;;;;5050105;28;20091;-86
2022/12/20 09:52:56;;;;;;;0.10;0.10;;;;;;;;;;5050304;28;20148;-85
2022/12/20 09:55:27;;;;;;;0.80;0.77;;;;;;;;;;5068194;28;20113;-85
2022/12/20 09:58:00;;;;;;;0.57;0.57;;;;;;;;;;5049666;28;20414;-86
2022/12/20 10:00:29;;;;;;;0.30;0.30;;;;;;;;;;5056164;28;20048;-85
2022/12/20 10:02:58;;;;;;;0.43;0.43;;;;;;;;;;5054921;28;20068;-86
2022/12/20 10:05:40;;;;;;;0.50;0.50;;;;;;;;;;5061580;28;20059;-85
2022/12/20 10:08:16;;;;;;;0.40;0.40;;;;;;;;;;5054246;28;20052;-86
2022/12/20 10:10:52;;;;;;;0.55;0.55;;;;;;;;;;5058419;28;20377;-85
2022/12/20 10:13:26;;;;;;;0.25;0.25;;;;;;;;;;5046824;28;20042;-85
2022/12/20 10:15:59;;;;;;;0.63;0.55;;;;;;;;;;5053591;28;20052;-84
2022/12/20 10:18:34;;;;;;;0.35;0.35;;;;;;;;;;5053081;28;20097;-85
2022/12/20 10:21:08;;;;;;;0.52;0.52;;;;;;;;;;5043924;28;20041;-85
2022/12/20 10:23:41;;;;;;;0.68;0.68;;;;;;;;;;5045261;28;20049;-85
2022/12/20 10:26:10;;;;;;;0.25;0.25;;;;;;;;;;5047265;28;20059;-86
2022/12/20 10:28:39;;;;;;;0.40;0.40;;;;;;;;;;5043068;28;20052;-86
2022/12/20 10:31:11;;;;;;;1.10;0.95;;;;;;;;;;5043940;28;20301;-84
2022/12/20 10:33:41;;;;;;;0.50;0.50;;;;;;;;;;5050669;28;20091;-85
2022/12/20 10:36:19;;;;;;;0.20;0.20;;;;;;;;;;5048650;28;20056;-86
2022/12/20 10:38:50;;;;;;;0.20;0.20;;;;;;;;;;5050289;28;20557;-85
2022/12/20 10:41:20;;;;;;;0.40;0.40;;;;;;;;;;5049579;28;20064;-85
2022/12/20 10:43:52;;;;;;;0.28;0.28;;;;;;;;;;5048589;28;20139;-84
2022/12/20 10:46:21;;;;;;;0.43;0.43;;;;;;;;;;5045008;28;20045;-84
2022/12/20 10:48:50;;;;;;;0.63;0.63;;;;;;;;;;5054029;28;20052;-86
2022/12/20 10:51:20;;;;;;;0.50;0.50;;;;;;;;;;5046128;28;20056;-85
2022/12/20 10:53:57;;;;;;;0.60;0.60;;;;;;;;;;5052787;28;20047;-84
2022/12/20 10:56:27;;;;;;;0.80;0.63;;;;;;;;;;5037380;28;20123;-84
2022/12/20 10:58:57;;;;;;;0.60;0.60;;;;;;;;;;5050165;28;20464;-84
2022/12/20 11:01:27;;;;;;;2.00;1.13;;;;;;;;;;5056139;28;20321;-84
2022/12/20 11:03:57;;;;;;;2.28;1.60;;;;;;;;;;5062495;28;20061;-85
2022/12/20 11:06:28;;;;;;;1.83;0.77;;;;;;;;;;5057411;28;20144;-85
2022/12/20 11:09:11;;;;;;;1.17;0.82;;;;;;;;;;5050265;28;20175;-88
2022/12/20 11:11:52;;;;;;;1.35;0.60;;;;;;;;;;5042728;28;20048;-84
2022/12/20 11:14:21;;;;;;;0.65;0.60;;;;;;;;;;5053578;28;20061;-85
2022/12/20 11:16:51;;;;;;;0.70;0.63;;;;;;;;;;5054828;28;20223;-87
2022/12/20 11:19:39;;;;;;;0.82;0.80;;;;;;;;;;5066735;28;20090;-86
2022/12/20 11:22:12;;;;;;;0.98;0.60;;;;;;;;;;5049499;28;20084;-84
2022/12/20 11:24:45;;;;;;;0.45;0.45;;;;;;;;;;5043111;28;20445;-84
2022/12/20 11:27:17;;;;;;;0.30;0.30;;;;;;;;;;5062555;28;20048;-85
2022/12/20 11:29:54;;;;;;;0.77;0.63;;;;;;;;;;5062762;28;20151;-88
2022/12/20 11:32:29;;;;;;;0.85;0.85;;;;;;;;;;5063380;28;20049;-84
2022/12/20 11:35:02;;;;;;;1.00;1.00;;;;;;;;;;5068143;28;20045;-84
2022/12/20 11:37:33;;;;;;;1.90;0.77;;;;;;;;;;5061976;28;20131;-85
2022/12/20 11:40:04;;;;;;;1.55;0.95;;;;;;;;;;5055956;28;20119;-85
2022/12/20 11:42:41;;;;;;;1.13;1.00;;;;;;;;;;5059044;28;20077;-86
2022/12/20 11:45:16;;;;;;;1.70;0.77;;;;;;;;;;5058261;28;20440;-85
2022/12/20 11:47:52;;;;;;;0.68;0.68;;;;;;;;;;5061080;28;20489;-85
2022/12/20 11:50:33;;;;;;;0.70;0.70;;;;;;;;;;5058112;28;20505;-85
2022/12/20 11:53:04;;;;;;;0.57;0.57;;;;;;;;;;5063861;28;20070;-84
2022/12/20 11:55:34;;;;;;;0.85;0.73;;;;;;;;;;5059318;28;20049;-84
2022/12/20 11:58:11;;;;;;;0.57;0.57;;;;;;;;;;5061789;28;20049;-84
2022/12/20 12:00:54;;;;;;;0.50;0.40;;;;;;;;;;5040656;28;20064;-84
2022/12/20 12:03:27;;;;;;;3.15;1.05;;;;;;;;;;5052892;28;20067;-87
2022/12/20 12:05:58;;;;;;;1.00;0.77;;;;;;;;;;5048463;28;20397;-84
2022/12/20 12:08:28;;;;;;;1.95;1.85;;;;;;;;;;5057164;28;20444;-86
2022/12/20 12:11:01;;;;;;;0.85;0.65;;;;;;;;;;5047305;28;20322;-86
2022/12/20 12:13:31;;;;;;;0.30;0.30;;;;;;;;;;5049280;28;20076;-86
2022/12/20 12:16:04;;;;;;;2.30;0.93;;;;;;;;;;5050828;28;20041;-84
2022/12/20 12:18:34;;;;;;;0.50;0.40;;;;;;;;;;5056926;28;20132;-85
2022/12/20 12:21:04;;;;;;;1.38;0.75;;;;;;;;;;5048043;28;20121;-85
2022/12/20 12:23:38;;;;;;;;;;;;;;;;;;5056823;28;20052;-85
2022/12/20 12:26:12;;;;;;;0.32;0.32;;;;;;;;;;5044518;28;20270;-85
2022/12/20 12:28:42;;;;;;;0.30;0.30;;;;;;;;;;5045629;28;20061;-86
2022/12/20 12:31:14;;;;;;;1.13;0.85;;;;;;;;;;5050673;28;20106;-85
2022/12/20 12:33:47;;;;;;;0.95;0.95;;;;;;;;;;5052459;28;20144;-85
2022/12/20 12:36:40;;;;;;;0.52;0.52;;;;;;;;;;5056297;28;20056;-85
2022/12/20 12:39:29;;;;;;;1.33;1.02;;;;;;;;;;5054143;28;20104;-85
2022/12/20 12:42:27;;;;;;;0.52;0.43;;;;;;;;;;5045875;28;20835;-85
2022/12/20 12:44:58;;;;;;;0.85;0.38;;;;;;;;;;5048917;28;20049;-86
2022/12/20 12:47:34;;;;;;;2.10;0.73;;;;;;;;;;5044290;28;20057;-85
2022/12/20 12:50:03;;;;;;;0.63;0.63;;;;;;;;;;5052062;28;20041;-87
2022/12/20 12:52:44;;;;;;;0.85;0.70;;;;;;;;;;5048749;28;20527;-88
2022/12/20 12:55:32;;;;;;;0.93;0.63;;;;;;;;;;5050667;28;20060;-87
2022/12/20 12:58:13;;;;;;;0.68;0.47;;;;;;;;;;5040137;28;20042;-84
2022/12/20 13:00:50;;;;;;;5.20;1.27;;;;;;;;;;5014800;28;20041;-86
2022/12/20 13:03:37;;;;;;;0.68;0.68;;;;;;;;;;5042501;28;20552;-85
2022/12/20 13:06:25;;;;;;;0.30;0.30;;;;;;;;;;5045704;28;20056;-85
2022/12/20 13:09:11;;;;;;;0.75;0.75;;;;;;;;;;5060504;28;20041;-85
2022/12/20 13:11:40;;;;;;;0.85;0.85;;;;;;;;;;5050441;28;20052;-86
2022/12/20 13:14:30;;;;;;;0.90;0.90;;;;;;;;;;5044747;28;20068;-85
2022/12/20 13:17:13;;;;;;;1.13;0.93;;;;;;;;;;5041900;28;20102;-86
2022/12/20 13:19:54;;;;;;;0.63;0.63;;;;;;;;;;5051878;28;20405;-84
2022/12/20 13:22:23;;;;;;;0.73;0.68;;;;;;;;;;5039096;28;20037;-83
2022/12/20 13:24:55;;;;;;;0.70;0.70;;;;;;;;;;5042908;28;20052;-83
2022/12/20 13:27:25;;;;;;;1.95;1.00;;;;;;;;;;5042571;28;20136;-84
2022/12/20 13:30:01;;;;;;;2.67;1.73;;;;;;;;;;5046575;28;20061;-83
2022/12/20 13:32:48;;;;;;;0.60;0.52;;;;;;;;;;5039536;28;20037;-83
2022/12/20 13:35:32;;;;;;;0.63;0.63;;;;;;;;;;5049671;28;20059;-83
2022/12/20 13:38:03;;;;;;;2.30;0.95;;;;;;;;;;5044479;28;20067;-83
2022/12/20 13:40:35;;;;;;;1.13;0.47;;;;;;;;;;5043581;28;20075;-82
2022/12/20 13:43:08;;;;;;;0.98;0.88;;;;;;;;;;5045599;28;20529;-82
2022/12/20 13:45:39;;;;;;;1.27;0.50;;;;;;;;;;5038024;28;20120;-82
2022/12/20 13:48:08;;;;;;;1.02;0.88;;;;;;;;;;5045000;28;20448;-83
2022/12/20 13:50:40;;;;;;;1.33;0.95;;;;;;;;;;5049883;28;20083;-83
2022/12/20 13:53:17;;;;;;;2.60;1.17;;;;;;;;;;5043423;28;20544;-82
2022/12/20 13:55:48;;;;;;;0.40;0.40;;;;;;;;;;5040295;28;20096;-82
2022/12/20 13:58:17;;;;;;;1.13;0.88;;;;;;;;;;5039524;28;20128;-84
2022/12/20 14:00:47;;;;;;;0.73;0.73;;;;;;;;;;5043819;28;20067;-82
2022/12/20 14:03:20;;;;;;;3.08;0.80;;;;;;;;;;5040901;28;20416;-85
2022/12/20 14:05:57;;;;;;;0.82;0.82;;;;;;;;;;5045453;28;20144;-82
2022/12/20 14:08:27;;;;;;;2.95;1.75;;;;;;;;;;5041395;28;20057;-83
2022/12/20 14:10:56;;;;;;;0.22;0.22;;;;;;;;;;5039745;28;20137;-83
2022/12/20 14:13:25;;;;;;;1.75;1.38;;;;;;;;;;5049329;28;20140;-82
2022/12/20 14:15:55;;;;;;;1.50;1.33;;;;;;;;;;5036494;28;20120;-83
2022/12/20 14:18:24;;;;;;;2.08;1.15;;;;;;;;;;5049603;28;20128;-83
2022/12/20 14:20:55;;;;;;;0.80;0.80;;;;;;;;;;5045452;28;20416;-83
2022/12/20 14:23:26;;;;;;;1.98;0.63;;;;;;;;;;5042610;28;20143;-84
2022/12/20 14:25:57;;;;;;;1.55;1.15;;;;;;;;;;5041936;28;20049;-84
2022/12/20 14:28:29;;;;;;;0.68;0.68;;;;;;;;;;5043720;28;20041;-84
2022/12/20 14:30:59;;;;;;;0.98;0.95;;;;;;;;;;5045032;28;20106;-86
2022/12/20 14:33:30;;;;;;;3.45;1.05;;;;;;;;;;5046902;28;20081;-84
2022/12/20 14:36:07;;;;;;;1.88;1.00;;;;;;;;;;5040296;28;20055;-86
2022/12/20 14:38:36;;;;;;;3.20;2.13;;;;;;;;;;5044923;28;20053;-83
2022/12/20 14:41:04;;;;;;;5.47;1.88;;;;;;;;;;5049771;28;20101;-85
2022/12/20 14:43:34;;;;;;;3.75;1.08;;;;;;;;;;5047006;28;20065;-84
2022/12/20 14:46:16;;;;;;;0.70;0.70;;;;;;;;;;5044146;28;20072;-84
2022/12/20 14:48:44;;;;;;;2.10;1.25;;;;;;;;;;5046559;28;20053;-84
2022/12/20 14:51:14;;;;;;;1.33;1.20;;;;;;;;;;5048821;28;20080;-84
2022/12/20 14:53:46;;;;;;;1.50;1.35;;;;;;;;;;5050972;28;20147;-84
2022/12/20 14:56:15;;;;;;;1.13;1.08;;;;;;;;;;5044636;28;20502;-84
2022/12/20 14:58:44;;;;;;;3.03;2.22;;;;;;;;;;5048870;28;20480;-85
2022/12/20 15:01:19;;;;;;;3.85;1.80;;;;;;;;;;5052975;28;20501;-85
2022/12/20 15:03:51;;;;;;;0.82;0.82;;;;;;;;;;5050869;28;20057;-83
2022/12/20 15:06:36;;;;;;;1.23;1.20;;;;;;;;;;5050167;28;20059;-84
2022/12/20 15:09:05;;;;;;;3.22;2.28;;;;;;;;;;5046018;28;20052;-84
2022/12/20 15:11:35;;;;;;;2.05;1.35;;;;;;;;;;5056386;28;20098;-84
2022/12/20 15:14:04;;;;;;;2.90;2.03;;;;;;;;;;5055034;28;20094;-84
2022/12/20 15:16:33;;;;;;;2.70;1.15;;;;;;;;;;5052428;28;20128;-83
2022/12/20 15:19:02;;;;;;;6.15;2.22;;;;;;;;;;5055648;28;20662;-84
2022/12/20 15:21:33;;;;;;;5.38;2.78;;;;;;;;;;5067516;28;20358;-84